sensor_id;sensor_type;location;lat;lon;timestamp;pressure;altitude;pressure_sealevel;temperature;humidity
35694;BME280;21812;55.536;37.664;2023-07-13T00:01:51;98874.06;;;13.08;72.54
35694;BME280;21812;55.536;37.664;2023-07-13T00:04:20;98874.50;;;13.05;72.70
35694;BME280;21812;55.536;37.664;2023-07-13T00:06:46;98855.53;;;13.07;72.39
35694;BME280;21812;55.536;37.664;2023-07-13T00:09:15;98826.31;;;12.87;72.29
35694;BME280;21812;55.536;37.664;2023-07-13T00:11:42;98877.56;;;13.09;72.27
35694;BME280;21812;55.536;37.664;2023-07-13T00:14:09;98870.66;;;13.01;72.28
35694;BME280;21812;55.536;37.664;2023-07-13T00:16:37;98886.88;;;13.06;72.71
35694;BME280;21812;55.536;37.664;2023-07-13T00:19:03;98876.81;;;13.02;72.38
35694;BME280;21812;55.536;37.664;2023-07-13T00:21:29;98877.03;;;13.00;72.47
35694;BME280;21812;55.536;37.664;2023-07-13T00:23:55;98876.81;;;13.02;72.27
35694;BME280;21812;55.536;37.664;2023-07-13T00:26:21;98869.84;;;13.01;72.10
35694;BME280;21812;55.536;37.664;2023-07-13T00:28:47;98871.69;;;13.00;72.26
35694;BME280;21812;55.536;37.664;2023-07-13T00:31:13;98882.66;;;12.99;72.11
35694;BME280;21812;55.536;37.664;2023-07-13T00:33:43;98880.41;;;12.96;72.27
35694;BME280;21812;55.536;37.664;2023-07-13T00:36:10;98881.00;;;12.98;72.42
35694;BME280;21812;55.536;37.664;2023-07-13T00:38:36;98869.00;;;13.00;72.37
35694;BME280;21812;55.536;37.664;2023-07-13T00:41:03;98875.19;;;13.01;72.10
35694;BME280;21812;55.536;37.664;2023-07-13T00:43:30;98865.88;;;13.03;72.07
35694;BME280;21812;55.536;37.664;2023-07-13T00:48:25;98840.53;;;12.87;72.23
35694;BME280;21812;55.536;37.664;2023-07-13T00:50:55;98870.09;;;13.11;72.03
35694;BME280;21812;55.536;37.664;2023-07-13T00:53:22;98868.47;;;13.10;71.47
35694;BME280;21812;55.536;37.664;2023-07-13T00:55:50;98875.09;;;13.07;71.68
35694;BME280;21812;55.536;37.664;2023-07-13T00:58:17;98876.53;;;13.10;71.69
35694;BME280;21812;55.536;37.664;2023-07-13T01:00:44;98849.53;;;12.93;71.50
35694;BME280;21812;55.536;37.664;2023-07-13T01:03:11;98864.59;;;13.06;71.63
35694;BME280;21812;55.536;37.664;2023-07-13T01:05:36;98868.47;;;13.10;71.58
35694;BME280;21812;55.536;37.664;2023-07-13T01:08:03;98879.31;;;13.15;72.62
35694;BME280;21812;55.536;37.664;2023-07-13T01:10:32;98877.09;;;13.12;71.71
35694;BME280;21812;55.536;37.664;2023-07-13T01:13:06;98845.31;;;12.85;71.72
35694;BME280;21812;55.536;37.664;2023-07-13T01:15:53;98878.19;;;13.23;71.70
35694;BME280;21812;55.536;37.664;2023-07-13T01:18:22;98860.19;;;13.11;71.45
35694;BME280;21812;55.536;37.664;2023-07-13T01:20:59;98861.50;;;13.21;71.27
35694;BME280;21812;55.536;37.664;2023-07-13T01:23:26;98869.78;;;13.19;71.37
35694;BME280;21812;55.536;37.664;2023-07-13T01:25:52;98861.47;;;13.09;71.51
35694;BME280;21812;55.536;37.664;2023-07-13T01:28:19;98865.22;;;13.08;71.71
35694;BME280;21812;55.536;37.664;2023-07-13T01:30:45;98864.75;;;13.11;72.12
35694;BME280;21812;55.536;37.664;2023-07-13T01:33:17;98790.25;;;12.71;72.03
35694;BME280;21812;55.536;37.664;2023-07-13T01:35:45;98846.44;;;13.08;71.93
35694;BME280;21812;55.536;37.664;2023-07-13T01:38:13;98860.09;;;13.18;71.75
35694;BME280;21812;55.536;37.664;2023-07-13T01:40:41;98851.25;;;13.18;72.21
35694;BME280;21812;55.536;37.664;2023-07-13T01:43:07;98838.25;;;13.03;72.07
35694;BME280;21812;55.536;37.664;2023-07-13T01:45:33;98845.25;;;13.04;72.40
35694;BME280;21812;55.536;37.664;2023-07-13T01:47:58;98851.69;;;13.15;72.22
35694;BME280;21812;55.536;37.664;2023-07-13T01:50:25;98849.59;;;13.17;72.06
35694;BME280;21812;55.536;37.664;2023-07-13T01:52:52;98852.66;;;13.20;72.80
35694;BME280;21812;55.536;37.664;2023-07-13T01:55:19;98844.84;;;13.19;72.31
35694;BME280;21812;55.536;37.664;2023-07-13T01:57:45;98850.66;;;13.16;72.41
35694;BME280;21812;55.536;37.664;2023-07-13T02:00:13;98845.78;;;13.24;74.31
35694;BME280;21812;55.536;37.664;2023-07-13T02:02:42;98832.72;;;13.16;72.41
35694;BME280;21812;55.536;37.664;2023-07-13T02:05:10;98842.38;;;13.17;72.50
35694;BME280;21812;55.536;37.664;2023-07-13T02:07:37;98845.31;;;13.16;72.45
35694;BME280;21812;55.536;37.664;2023-07-13T02:10:03;98839.47;;;13.19;72.39
35694;BME280;21812;55.536;37.664;2023-07-13T02:12:30;98831.06;;;13.15;72.29
35694;BME280;21812;55.536;37.664;2023-07-13T02:14:55;98842.38;;;13.17;72.49
35694;BME280;21812;55.536;37.664;2023-07-13T02:17:21;98837.94;;;13.11;72.56
35694;BME280;21812;55.536;37.664;2023-07-13T02:19:47;98834.66;;;13.09;72.78
35694;BME280;21812;55.536;37.664;2023-07-13T02:22:13;98832.00;;;13.09;72.71
35694;BME280;21812;55.536;37.664;2023-07-13T02:24:39;98840.75;;;13.16;72.73
35694;BME280;21812;55.536;37.664;2023-07-13T02:27:05;98848.25;;;13.26;75.18
35694;BME280;21812;55.536;37.664;2023-07-13T02:29:31;98842.38;;;13.17;73.38
35694;BME280;21812;55.536;37.664;2023-07-13T02:31:57;98831.06;;;13.15;73.11
35694;BME280;21812;55.536;37.664;2023-07-13T02:34:23;98835.03;;;13.13;73.21
35694;BME280;21812;55.536;37.664;2023-07-13T02:36:49;98833.75;;;13.15;73.17
35694;BME280;21812;55.536;37.664;2023-07-13T02:39:15;98837.94;;;13.11;73.17
35694;BME280;21812;55.536;37.664;2023-07-13T02:41:41;98833.38;;;13.11;73.28
35694;BME280;21812;55.536;37.664;2023-07-13T02:44:07;98835.41;;;13.16;73.18
35694;BME280;21812;55.536;37.664;2023-07-13T02:46:36;98763.84;;;12.75;73.19
35694;BME280;21812;55.536;37.664;2023-07-13T02:49:03;98831.31;;;13.14;73.19
35694;BME280;21812;55.536;37.664;2023-07-13T02:51:29;98822.91;;;13.10;73.19
35694;BME280;21812;55.536;37.664;2023-07-13T02:53:55;98816.50;;;13.11;73.48
35694;BME280;21812;55.536;37.664;2023-07-13T02:56:23;98788.72;;;12.94;73.40
35694;BME280;21812;55.536;37.664;2023-07-13T02:58:50;98796.53;;;12.95;74.14
35694;BME280;21812;55.536;37.664;2023-07-13T03:01:16;98824.09;;;13.14;73.70
35694;BME280;21812;55.536;37.664;2023-07-13T03:03:48;98819.03;;;13.06;73.78
35694;BME280;21812;55.536;37.664;2023-07-13T03:06:15;98815.75;;;13.04;73.64
35694;BME280;21812;55.536;37.664;2023-07-13T03:08:47;98827.69;;;13.08;73.95
35694;BME280;21812;55.536;37.664;2023-07-13T03:11:17;98810.88;;;13.01;73.94
35694;BME280;21812;55.536;37.664;2023-07-13T03:13:45;98818.59;;;13.09;74.00
35694;BME280;21812;55.536;37.664;2023-07-13T03:16:12;98821.50;;;13.07;74.10
35694;BME280;21812;55.536;37.664;2023-07-13T03:18:38;98818.44;;;13.04;74.26
35694;BME280;21812;55.536;37.664;2023-07-13T03:21:07;98823.22;;;13.02;74.33
35694;BME280;21812;55.536;37.664;2023-07-13T03:23:33;98819.94;;;13.00;74.44
35694;BME280;21812;55.536;37.664;2023-07-13T03:26:08;98794.69;;;12.77;74.67
35694;BME280;21812;55.536;37.664;2023-07-13T03:28:35;98828.22;;;12.98;74.89
35694;BME280;21812;55.536;37.664;2023-07-13T03:31:11;98789.81;;;12.74;75.21
35694;BME280;21812;55.536;37.664;2023-07-13T03:33:37;98827.69;;;13.08;76.42
35694;BME280;21812;55.536;37.664;2023-07-13T03:36:05;98790.06;;;12.84;75.30
35694;BME280;21812;55.536;37.664;2023-07-13T03:38:32;98820.69;;;13.07;74.75
35694;BME280;21812;55.536;37.664;2023-07-13T03:41:01;98827.56;;;13.15;74.59
35694;BME280;21812;55.536;37.664;2023-07-13T03:43:27;98831.22;;;13.20;76.75
35694;BME280;21812;55.536;37.664;2023-07-13T03:45:53;98832.50;;;13.18;75.22
35694;BME280;21812;55.536;37.664;2023-07-13T03:48:19;98825.03;;;13.20;74.66
35694;BME280;21812;55.536;37.664;2023-07-13T03:50:45;98828.31;;;13.22;74.59
35694;BME280;21812;55.536;37.664;2023-07-13T03:53:12;98827.50;;;13.21;74.27
35694;BME280;21812;55.536;37.664;2023-07-13T03:55:37;98822.13;;;13.21;74.49
35694;BME280;21812;55.536;37.664;2023-07-13T03:58:35;98823.59;;;13.36;74.43
35694;BME280;21812;55.536;37.664;2023-07-13T04:01:11;98826.84;;;13.38;74.28
35694;BME280;21812;55.536;37.664;2023-07-13T04:03:38;98821.03;;;13.41;74.08
35694;BME280;21812;55.536;37.664;2023-07-13T04:06:06;98788.75;;;13.17;73.83
35694;BME280;21812;55.536;37.664;2023-07-13T04:08:34;98823.25;;;13.44;73.75
35694;BME280;21812;55.536;37.664;2023-07-13T04:11:01;98832.47;;;13.48;73.56
35694;BME280;21812;55.536;37.664;2023-07-13T04:13:27;98825.25;;;13.48;73.89
35694;BME280;21812;55.536;37.664;2023-07-13T04:15:54;98823.97;;;13.51;73.51
35694;BME280;21812;55.536;37.664;2023-07-13T04:18:20;98831.19;;;13.51;73.64
35694;BME280;21812;55.536;37.664;2023-07-13T04:20:47;98821.28;;;13.51;73.74
35694;BME280;21812;55.536;37.664;2023-07-13T04:23:13;98843.91;;;13.55;73.64
35694;BME280;21812;55.536;37.664;2023-07-13T04:25:39;98842.88;;;13.56;73.51
35694;BME280;21812;55.536;37.664;2023-07-13T04:28:08;98843.44;;;13.58;73.75
35694;BME280;21812;55.536;37.664;2023-07-13T04:30:34;98825.72;;;13.57;73.65
35694;BME280;21812;55.536;37.664;2023-07-13T04:33:00;98824.69;;;13.58;73.69
35694;BME280;21812;55.536;37.664;2023-07-13T04:35:25;98825.97;;;13.56;73.89
35694;BME280;21812;55.536;37.664;2023-07-13T04:37:51;98817.91;;;13.56;73.89
35694;BME280;21812;55.536;37.664;2023-07-13T04:40:17;98827.59;;;13.68;74.75
35694;BME280;21812;55.536;37.664;2023-07-13T04:42:45;98823.66;;;13.83;74.02
35694;BME280;21812;55.536;37.664;2023-07-13T04:45:12;98828.19;;;13.82;73.51
35694;BME280;21812;55.536;37.664;2023-07-13T04:47:39;98827.28;;;13.77;73.54
35694;BME280;21812;55.536;37.664;2023-07-13T04:50:05;98827.00;;;13.78;73.57
35694;BME280;21812;55.536;37.664;2023-07-13T04:52:31;98828.31;;;13.76;73.74
35694;BME280;21812;55.536;37.664;2023-07-13T04:54:59;98834.59;;;13.81;73.95
35694;BME280;21812;55.536;37.664;2023-07-13T04:57:26;98835.78;;;13.85;74.02
35694;BME280;21812;55.536;37.664;2023-07-13T04:59:53;98844.19;;;13.89;73.72
35694;BME280;21812;55.536;37.664;2023-07-13T05:02:20;98754.47;;;13.61;75.44
35694;BME280;21812;55.536;37.664;2023-07-13T05:04:47;98849.22;;;14.09;73.39
35694;BME280;21812;55.536;37.664;2023-07-13T05:07:13;98839.28;;;14.10;73.54
35694;BME280;21812;55.536;37.664;2023-07-13T05:09:39;98818.97;;;14.02;72.82
35694;BME280;21812;55.536;37.664;2023-07-13T05:12:08;98822.22;;;14.16;73.81
35694;BME280;21812;55.536;37.664;2023-07-13T05:14:34;98830.53;;;14.26;72.93
35694;BME280;21812;55.536;37.664;2023-07-13T05:17:00;98833.78;;;14.28;72.10
35694;BME280;21812;55.536;37.664;2023-07-13T05:19:26;98822.34;;;14.21;72.31
35694;BME280;21812;55.536;37.664;2023-07-13T05:21:52;98824.06;;;14.27;72.03
35694;BME280;21812;55.536;37.664;2023-07-13T05:24:17;98832.25;;;14.32;72.26
35694;BME280;21812;55.536;37.664;2023-07-13T05:26:44;98828.63;;;14.38;72.55
35694;BME280;21812;55.536;37.664;2023-07-13T05:29:10;98826.28;;;14.42;71.98
35694;BME280;21812;55.536;37.664;2023-07-13T05:31:36;98819.84;;;14.55;71.95
35694;BME280;21812;55.536;37.664;2023-07-13T05:34:02;98824.38;;;14.66;71.22
35694;BME280;21812;55.536;37.664;2023-07-13T05:36:28;98824.47;;;14.71;71.23
35694;BME280;21812;55.536;37.664;2023-07-13T05:38:54;98824.00;;;14.74;70.95
35694;BME280;21812;55.536;37.664;2023-07-13T05:41:20;98829.72;;;14.78;70.92
35694;BME280;21812;55.536;37.664;2023-07-13T05:43:45;98825.16;;;14.78;70.76
35694;BME280;21812;55.536;37.664;2023-07-13T05:46:11;98831.34;;;14.79;70.93
35694;BME280;21812;55.536;37.664;2023-07-13T05:48:37;98828.19;;;14.82;71.03
35694;BME280;21812;55.536;37.664;2023-07-13T05:51:03;98808.63;;;14.86;70.47
35694;BME280;21812;55.536;37.664;2023-07-13T05:53:29;98816.06;;;14.96;70.29
35694;BME280;21812;55.536;37.664;2023-07-13T05:55:55;98827.25;;;15.05;69.70
35694;BME280;21812;55.536;37.664;2023-07-13T05:58:21;98831.59;;;15.06;69.82
35694;BME280;21812;55.536;37.664;2023-07-13T06:00:47;98833.78;;;15.09;69.88
35694;BME280;21812;55.536;37.664;2023-07-13T06:03:15;98810.59;;;15.20;69.78
35694;BME280;21812;55.536;37.664;2023-07-13T06:05:41;98815.81;;;15.27;69.36
35694;BME280;21812;55.536;37.664;2023-07-13T06:08:07;98814.41;;;15.24;69.09
35694;BME280;21812;55.536;37.664;2023-07-13T06:10:36;98823.41;;;15.30;68.94
35694;BME280;21812;55.536;37.664;2023-07-13T06:13:02;98814.84;;;15.33;69.13
35694;BME280;21812;55.536;37.664;2023-07-13T06:15:28;98808.00;;;15.42;69.11
35694;BME280;21812;55.536;37.664;2023-07-13T06:17:54;98803.34;;;15.54;68.61
35694;BME280;21812;55.536;37.664;2023-07-13T06:20:20;98806.75;;;15.67;67.97
35694;BME280;21812;55.536;37.664;2023-07-13T06:22:46;98806.66;;;15.73;67.35
35694;BME280;21812;55.536;37.664;2023-07-13T06:25:11;98808.91;;;15.81;67.12
35694;BME280;21812;55.536;37.664;2023-07-13T06:27:37;98801.16;;;15.85;66.42
35694;BME280;21812;55.536;37.664;2023-07-13T06:30:03;98796.91;;;15.89;66.08
35694;BME280;21812;55.536;37.664;2023-07-13T06:32:30;98795.44;;;15.98;65.25
35694;BME280;21812;55.536;37.664;2023-07-13T06:34:56;98801.28;;;16.12;65.17
35694;BME280;21812;55.536;37.664;2023-07-13T06:37:22;98794.06;;;16.18;64.38
35694;BME280;21812;55.536;37.664;2023-07-13T06:39:48;98805.97;;;16.22;63.98
35694;BME280;21812;55.536;37.664;2023-07-13T06:42:13;98796.47;;;16.36;67.06
35694;BME280;21812;55.536;37.664;2023-07-13T06:44:39;98793.22;;;16.34;64.14
35694;BME280;21812;55.536;37.664;2023-07-13T06:47:05;98797.78;;;16.34;63.28
35694;BME280;21812;55.536;37.664;2023-07-13T06:49:31;98786.50;;;16.37;63.82
35694;BME280;21812;55.536;37.664;2023-07-13T06:51:56;98772.47;;;16.35;63.51
35694;BME280;21812;55.536;37.664;2023-07-13T06:54:22;98795.09;;;16.56;63.56
35694;BME280;21812;55.536;37.664;2023-07-13T06:56:48;98789.31;;;16.69;64.57
35694;BME280;21812;55.536;37.664;2023-07-13T06:59:14;98798.56;;;16.78;61.99
35694;BME280;21812;55.536;37.664;2023-07-13T07:01:39;98790.59;;;16.84;61.64
35694;BME280;21812;55.536;37.664;2023-07-13T07:04:05;98798.72;;;16.89;61.67
35694;BME280;21812;55.536;37.664;2023-07-13T07:06:31;98795.56;;;16.97;60.87
35694;BME280;21812;55.536;37.664;2023-07-13T07:08:56;98788.03;;;16.99;60.56
35694;BME280;21812;55.536;37.664;2023-07-13T07:11:24;98747.28;;;16.73;60.22
35694;BME280;21812;55.536;37.664;2023-07-13T07:13:51;98797.50;;;17.02;58.28
35694;BME280;21812;55.536;37.664;2023-07-13T07:16:17;98800.19;;;17.02;59.19
35694;BME280;21812;55.536;37.664;2023-07-13T07:18:44;98794.34;;;17.10;59.19
35694;BME280;21812;55.536;37.664;2023-07-13T07:21:10;98792.53;;;17.15;58.04
35694;BME280;21812;55.536;37.664;2023-07-13T07:23:36;98787.72;;;17.23;58.74
35694;BME280;21812;55.536;37.664;2023-07-13T07:26:01;98796.66;;;17.28;59.04
35694;BME280;21812;55.536;37.664;2023-07-13T07:28:27;98794.50;;;17.25;57.77
35694;BME280;21812;55.536;37.664;2023-07-13T07:30:57;98792.59;;;17.26;58.51
35694;BME280;21812;55.536;37.664;2023-07-13T07:33:24;98797.94;;;17.20;57.99
35694;BME280;21812;55.536;37.664;2023-07-13T07:35:51;98798.47;;;17.17;58.11
35694;BME280;21812;55.536;37.664;2023-07-13T07:38:17;98789.78;;;17.10;57.98
35694;BME280;21812;55.536;37.664;2023-07-13T07:40:42;98801.75;;;17.25;58.26
35694;BME280;21812;55.536;37.664;2023-07-13T07:43:10;98742.13;;;16.94;58.81
35694;BME280;21812;55.536;37.664;2023-07-13T07:45:37;98817.53;;;17.38;58.54
35694;BME280;21812;55.536;37.664;2023-07-13T07:48:04;98816.75;;;17.43;58.85
35694;BME280;21812;55.536;37.664;2023-07-13T07:50:30;98823.53;;;17.45;59.10
35694;BME280;21812;55.536;37.664;2023-07-13T07:52:56;98815.97;;;17.47;58.94
35694;BME280;21812;55.536;37.664;2023-07-13T07:55:23;98805.72;;;17.44;58.63
35694;BME280;21812;55.536;37.664;2023-07-13T07:57:49;98822.53;;;17.56;59.08
35694;BME280;21812;55.536;37.664;2023-07-13T08:00:16;98807.94;;;17.52;58.86
35694;BME280;21812;55.536;37.664;2023-07-13T08:02:43;98824.44;;;17.56;58.31
35694;BME280;21812;55.536;37.664;2023-07-13T08:05:09;98817.09;;;17.51;58.84
35694;BME280;21812;55.536;37.664;2023-07-13T08:07:37;98817.09;;;17.51;58.74
35694;BME280;21812;55.536;37.664;2023-07-13T08:10:04;98821.91;;;17.44;59.18
35694;BME280;21812;55.536;37.664;2023-07-13T08:12:34;98829.66;;;17.35;59.71
35694;BME280;21812;55.536;37.664;2023-07-13T08:15:00;98834.75;;;17.32;59.77
35694;BME280;21812;55.536;37.664;2023-07-13T08:17:26;98817.13;;;17.24;60.28
35694;BME280;21812;55.536;37.664;2023-07-13T08:19:53;98827.13;;;17.24;59.13
35694;BME280;21812;55.536;37.664;2023-07-13T08:22:18;98823.47;;;17.08;58.01
35694;BME280;21812;55.536;37.664;2023-07-13T08:24:44;98829.00;;;17.23;58.45
35694;BME280;21812;55.536;37.664;2023-07-13T08:27:11;98829.25;;;17.22;57.95
35694;BME280;21812;55.536;37.664;2023-07-13T08:29:37;98834.97;;;17.25;56.79
35694;BME280;21812;55.536;37.664;2023-07-13T08:32:05;98831.97;;;17.27;57.40
35694;BME280;21812;55.536;37.664;2023-07-13T08:34:31;98838.47;;;17.26;58.12
35694;BME280;21812;55.536;37.664;2023-07-13T08:36:57;98826.56;;;17.22;58.21
35694;BME280;21812;55.536;37.664;2023-07-13T08:39:22;98817.91;;;17.19;59.73
35694;BME280;21812;55.536;37.664;2023-07-13T08:41:53;98818.47;;;17.22;60.26
35694;BME280;21812;55.536;37.664;2023-07-13T08:44:30;98820.06;;;17.17;59.91
35694;BME280;21812;55.536;37.664;2023-07-13T08:47:02;98824.31;;;17.13;58.46
35694;BME280;21812;55.536;37.664;2023-07-13T08:49:28;98815.63;;;17.06;57.37
35694;BME280;21812;55.536;37.664;2023-07-13T08:52:01;98802.00;;;16.91;56.93
35694;BME280;21812;55.536;37.664;2023-07-13T08:54:37;98833.72;;;17.11;59.41
35694;BME280;21812;55.536;37.664;2023-07-13T08:57:15;98799.72;;;16.83;61.72
35694;BME280;21812;55.536;37.664;2023-07-13T08:59:43;98830.56;;;16.92;63.18
35694;BME280;21812;55.536;37.664;2023-07-13T09:05:26;98833.38;;;17.02;63.71
35694;BME280;21812;55.536;37.664;2023-07-13T09:08:04;98814.50;;;17.02;64.43
35694;BME280;21812;55.536;37.664;2023-07-13T09:10:50;98791.03;;;17.03;64.67
35694;BME280;21812;55.536;37.664;2023-07-13T09:13:32;98776.75;;;17.02;65.27
35694;BME280;21812;55.536;37.664;2023-07-13T09:16:03;98823.44;;;17.35;64.07
35694;BME280;21812;55.536;37.664;2023-07-13T09:18:33;98821.81;;;17.34;64.16
35694;BME280;21812;55.536;37.664;2023-07-13T09:21:09;98826.66;;;17.32;64.17
35694;BME280;21812;55.536;37.664;2023-07-13T09:23:36;98826.03;;;17.25;63.38
35694;BME280;21812;55.536;37.664;2023-07-13T09:26:18;98826.88;;;17.25;64.80
35694;BME280;21812;55.536;37.664;2023-07-13T09:28:47;98839.03;;;17.28;64.99
35694;BME280;21812;55.536;37.664;2023-07-13T09:31:17;98818.78;;;17.25;64.80
35694;BME280;21812;55.536;37.664;2023-07-13T09:33:44;98838.25;;;17.32;62.72
35694;BME280;21812;55.536;37.664;2023-07-13T09:36:31;98841.78;;;17.33;63.87
35694;BME280;21812;55.536;37.664;2023-07-13T09:39:05;98850.06;;;17.26;63.40
35694;BME280;21812;55.536;37.664;2023-07-13T09:41:41;98842.19;;;17.19;63.69
35694;BME280;21812;55.536;37.664;2023-07-13T09:44:10;98841.88;;;17.16;65.31
35694;BME280;21812;55.536;37.664;2023-07-13T09:46:39;98820.41;;;16.99;64.43
35694;BME280;21812;55.536;37.664;2023-07-13T09:49:09;98810.31;;;16.89;64.90
35694;BME280;21812;55.536;37.664;2023-07-13T09:51:37;98846.56;;;16.98;64.93
35694;BME280;21812;55.536;37.664;2023-07-13T09:54:02;98852.19;;;16.97;64.39
35694;BME280;21812;55.536;37.664;2023-07-13T09:56:29;98855.38;;;16.94;64.79
35694;BME280;21812;55.536;37.664;2023-07-13T09:58:56;98858.34;;;16.92;65.45
35694;BME280;21812;55.536;37.664;2023-07-13T10:01:37;98844.66;;;16.99;65.78
35694;BME280;21812;55.536;37.664;2023-07-13T10:04:13;98859.28;;;17.03;65.98
35694;BME280;21812;55.536;37.664;2023-07-13T10:06:40;98825.03;;;16.81;66.49
35694;BME280;21812;55.536;37.664;2023-07-13T10:09:09;98851.31;;;16.91;65.90
35694;BME280;21812;55.536;37.664;2023-07-13T10:11:36;98859.16;;;16.93;65.99
35694;BME280;21812;55.536;37.664;2023-07-13T10:14:17;98860.78;;;16.94;66.42
35694;BME280;21812;55.536;37.664;2023-07-13T10:16:45;98856.66;;;16.86;65.75
35694;BME280;21812;55.536;37.664;2023-07-13T10:19:32;98861.59;;;16.94;67.02
35694;BME280;21812;55.536;37.664;2023-07-13T10:22:02;98848.25;;;16.83;66.34
35694;BME280;21812;55.536;37.664;2023-07-13T10:24:36;98820.34;;;16.72;66.77
35694;BME280;21812;55.536;37.664;2023-07-13T10:27:11;98851.25;;;16.86;66.48
35694;BME280;21812;55.536;37.664;2023-07-13T10:29:47;98821.34;;;16.66;67.31
35694;BME280;21812;55.536;37.664;2023-07-13T10:32:14;98856.41;;;16.88;66.86
35694;BME280;21812;55.536;37.664;2023-07-13T10:34:43;98821.06;;;16.62;68.01
35694;BME280;21812;55.536;37.664;2023-07-13T10:37:18;98862.28;;;16.85;67.51
35694;BME280;21812;55.536;37.664;2023-07-13T10:39:47;98859.88;;;16.83;67.85
35694;BME280;21812;55.536;37.664;2023-07-13T10:42:16;98868.66;;;16.78;68.14
35694;BME280;21812;55.536;37.664;2023-07-13T10:44:44;98864.75;;;16.86;68.73
35694;BME280;21812;55.536;37.664;2023-07-13T10:47:15;98863.69;;;16.87;67.79
35694;BME280;21812;55.536;37.664;2023-07-13T10:49:44;98876.66;;;16.90;68.41
35694;BME280;21812;55.536;37.664;2023-07-13T10:55:02;98874.72;;;16.86;69.24
35694;BME280;21812;55.536;37.664;2023-07-13T10:57:29;98870.44;;;16.90;69.09
35694;BME280;21812;55.536;37.664;2023-07-13T11:02:31;98868.31;;;16.92;69.66
35694;BME280;21812;55.536;37.664;2023-07-13T11:04:57;98879.09;;;16.92;70.54
35694;BME280;21812;55.536;37.664;2023-07-13T11:07:29;98845.91;;;16.69;70.94
35694;BME280;21812;55.536;37.664;2023-07-13T11:09:57;98885.00;;;16.89;70.19
35694;BME280;21812;55.536;37.664;2023-07-13T11:17:50;98880.91;;;16.86;71.13
35694;BME280;21812;55.536;37.664;2023-07-13T11:22:46;98893.06;;;16.67;71.86
35694;BME280;21812;55.536;37.664;2023-07-13T11:25:33;98888.72;;;16.66;72.74
35694;BME280;21812;55.536;37.664;2023-07-13T11:28:15;98880.72;;;16.49;72.67
35694;BME280;21812;55.536;37.664;2023-07-13T11:33:25;98865.38;;;16.32;71.81
35694;BME280;21812;55.536;37.664;2023-07-13T11:35:59;98873.19;;;16.51;72.08
35694;BME280;21812;55.536;37.664;2023-07-13T11:41:14;98872.91;;;16.52;71.29
35694;BME280;21812;55.536;37.664;2023-07-13T11:43:41;98870.25;;;16.35;71.38
35694;BME280;21812;55.536;37.664;2023-07-13T11:46:20;98851.84;;;16.27;70.99
35694;BME280;21812;55.536;37.664;2023-07-13T11:48:47;98869.78;;;16.38;72.00
35694;BME280;21812;55.536;37.664;2023-07-13T11:51:20;98861.13;;;16.36;73.19
35694;BME280;21812;55.536;37.664;2023-07-13T11:53:49;98862.25;;;16.40;73.12
35694;BME280;21812;55.536;37.664;2023-07-13T11:56:15;98858.50;;;16.41;72.41
35694;BME280;21812;55.536;37.664;2023-07-13T11:58:41;98862.78;;;16.37;73.17
35694;BME280;21812;55.536;37.664;2023-07-13T12:01:16;98859.47;;;16.35;74.86
35694;BME280;21812;55.536;37.664;2023-07-13T12:03:44;98867.84;;;16.34;74.24
35694;BME280;21812;55.536;37.664;2023-07-13T12:06:31;98840.41;;;16.20;73.73
35694;BME280;21812;55.536;37.664;2023-07-13T12:08:59;98862.13;;;16.30;72.87
35694;BME280;21812;55.536;37.664;2023-07-13T12:11:27;98859.91;;;16.27;72.30
35694;BME280;21812;55.536;37.664;2023-07-13T12:13:53;98861.81;;;16.27;71.31
35694;BME280;21812;55.536;37.664;2023-07-13T12:16:24;98873.06;;;16.23;70.78
35694;BME280;21812;55.536;37.664;2023-07-13T12:18:52;98828.16;;;15.90;70.82
35694;BME280;21812;55.536;37.664;2023-07-13T12:21:19;98862.31;;;16.07;70.88
35694;BME280;21812;55.536;37.664;2023-07-13T12:23:49;98835.50;;;15.78;70.73
35694;BME280;21812;55.536;37.664;2023-07-13T12:26:15;98878.81;;;15.93;69.64
35694;BME280;21812;55.536;37.664;2023-07-13T12:28:54;98872.94;;;15.96;69.81
35694;BME280;21812;55.536;37.664;2023-07-13T12:34:08;98878.81;;;15.93;69.62
35694;BME280;21812;55.536;37.664;2023-07-13T12:36:36;98870.00;;;15.81;68.93
35694;BME280;21812;55.536;37.664;2023-07-13T12:41:50;98831.50;;;15.63;70.06
35694;BME280;21812;55.536;37.664;2023-07-13T12:44:20;98834.75;;;15.66;69.49
35694;BME280;21812;55.536;37.664;2023-07-13T12:47:03;98821.38;;;15.71;70.11
35694;BME280;21812;55.536;37.664;2023-07-13T12:49:32;98853.44;;;15.89;70.44
35694;BME280;21812;55.536;37.664;2023-07-13T12:52:03;98851.25;;;15.86;70.58
35694;BME280;21812;55.536;37.664;2023-07-13T12:54:30;98843.91;;;15.81;70.81
35694;BME280;21812;55.536;37.664;2023-07-13T12:56:58;98852.31;;;15.85;71.87
35694;BME280;21812;55.536;37.664;2023-07-13T12:59:29;98837.97;;;15.79;71.68
35694;BME280;21812;55.536;37.664;2023-07-13T13:01:55;98847.50;;;15.87;71.55
35694;BME280;21812;55.536;37.664;2023-07-13T13:04:21;98851.81;;;15.88;70.68
35694;BME280;21812;55.536;37.664;2023-07-13T13:06:49;98837.22;;;15.84;71.55
35694;BME280;21812;55.536;37.664;2023-07-13T13:09:25;98843.00;;;15.93;71.46
35694;BME280;21812;55.536;37.664;2023-07-13T13:11:51;98840.56;;;15.91;71.51
35694;BME280;21812;55.536;37.664;2023-07-13T13:14:17;98844.22;;;15.85;72.11
35694;BME280;21812;55.536;37.664;2023-07-13T13:16:48;98829.03;;;15.62;71.51
35694;BME280;21812;55.536;37.664;2023-07-13T13:19:16;98861.84;;;15.76;71.93
35694;BME280;21812;55.536;37.664;2023-07-13T13:21:43;98861.75;;;15.71;72.60
35694;BME280;21812;55.536;37.664;2023-07-13T13:24:17;98862.19;;;15.79;72.83
35694;BME280;21812;55.536;37.664;2023-07-13T13:26:45;98869.34;;;15.74;71.54